»·PEaware :: N408TF KAJO-KVCV

N408TF :: KAJO-KVCV

FLIGHT INFORMATION

Flight Status: Arrived
Operator: Privately registered:
United States
More flights under this callsign
Pilot: Dan S. (31216)
Aircraft: CESSNA 182 SKYLANE
(C182)
More flights by this aircraft type
Origin: KAJO Corona Mun
United States
Destination: KVCV Socal Logistics
United States
More flights between these airports :: More routes between these airports
Route: PDZ V442 APLES
File this flight plan on PilotEdge
Remarks:
Altitude:
(Current/Filed)
11,000ft
Speed:
(Current/Filed)
140kts
Departed: 08-Nov-20 03:15 PM
Arrived: 08-Nov-20 04:13 PM
Distance/Time
Traveled:
43nm/0:58
Distance/Time
To Go:
Arrived

Flight Plot

Page will automatically refresh every two minutes.


Map Options




Map Legend


Flown Route
Filed Route
Departure Airport
Arrival Airport
Navaid (VOR, NDB)
Fix

Horizontal Profiles

Position Reports

Time Latitude Longitude Heading Altitude Ground
Speed
08-Nov-20 15:07 33.896958 -117.596891 268 539ft 0kts
08-Nov-20 15:08 33.896958 -117.596891 268 539ft 0kts
08-Nov-20 15:09 33.896955 -117.596980 269 539ft 4kts
08-Nov-20 15:10 33.897285 -117.597302 356 539ft 0kts
08-Nov-20 15:11 33.897285 -117.597302 356 539ft 0kts
08-Nov-20 15:12 33.897285 -117.597302 356 539ft 0kts
08-Nov-20 15:13 33.897285 -117.597302 356 539ft 0kts
08-Nov-20 15:14 33.897685 -117.605850 258 777ft 63kts
08-Nov-20 15:15 33.909048 -117.622090 7 1767ft 103kts
08-Nov-20 15:16 33.917849 -117.590638 93 2566ft 105kts
08-Nov-20 15:17 33.917770 -117.553127 96 3221ft 118kts
08-Nov-20 15:18 33.925226 -117.516138 16 3947ft 114kts
08-Nov-20 15:19 33.953500 -117.512128 341 4684ft 101kts
08-Nov-20 15:20 33.962728 -117.484582 182 5368ft 92kts
08-Nov-20 15:21 33.947409 -117.498564 231 5991ft 78kts
08-Nov-20 15:22 33.927662 -117.520421 229 6029ft 110kts
08-Nov-20 15:23 33.931641 -117.544010 2 6038ft 155kts
08-Nov-20 15:24 33.960162 -117.515128 32 7123ft 126kts
08-Nov-20 15:25 33.987185 -117.490027 12 7892ft 119kts
08-Nov-20 15:26 34.016480 -117.471355 9 8658ft 119kts
08-Nov-20 15:27 34.048432 -117.452175 12 9000ft 148kts
08-Nov-20 15:28 34.083806 -117.430335 8 9622ft 126kts
08-Nov-20 15:29 34.114928 -117.411798 6 10287ft 125kts
08-Nov-20 15:30 34.146194 -117.393060 5 10922ft 125kts
08-Nov-20 15:31 34.181458 -117.371947 10 10998ft 154kts
08-Nov-20 15:32 34.220754 -117.348081 11 11017ft 158kts
08-Nov-20 15:33 34.259629 -117.324616 12 11061ft 156kts
08-Nov-20 15:34 34.298345 -117.301164 14 11061ft 155kts
08-Nov-20 15:35 34.337047 -117.277665 14 11061ft 155kts
08-Nov-20 15:36 34.375946 -117.254146 15 10998ft 157kts
08-Nov-20 15:37 34.415141 -117.230404 14 10998ft 160kts
08-Nov-20 15:38 34.455458 -117.205957 16 10632ft 164kts
08-Nov-20 15:39 34.496366 -117.181115 16 9927ft 165kts
08-Nov-20 15:40 34.537531 -117.156124 17 9203ft 165kts
08-Nov-20 15:41 34.577159 -117.143801 350 9004ft 138kts
08-Nov-20 15:42 34.617313 -117.144515 340 8999ft 145kts
08-Nov-20 15:43 34.656168 -117.154641 329 8999ft 140kts
08-Nov-20 15:44 34.691474 -117.172945 318 8637ft 134kts
08-Nov-20 15:45 34.721714 -117.197446 308 8056ft 128kts
08-Nov-20 15:46 34.746979 -117.226875 299 7494ft 124kts
08-Nov-20 15:47 34.766985 -117.259712 291 6946ft 117kts
08-Nov-20 15:48 34.781230 -117.293055 283 6498ft 108kts
08-Nov-20 15:49 34.791272 -117.329444 277 5706ft 115kts
08-Nov-20 15:50 34.796563 -117.366260 269 5195ft 95kts
08-Nov-20 15:51 34.771726 -117.374965 197 5198ft 111kts
08-Nov-20 15:52 34.740905 -117.377341 195 5126ft 107kts
08-Nov-20 15:53 34.713143 -117.379729 187 4632ft 99kts
08-Nov-20 15:54 34.685703 -117.382086 189 4113ft 101kts
08-Nov-20 15:55 34.657234 -117.384540 190 3567ft 103kts
08-Nov-20 15:56 34.632989 -117.386588 192 3193ft 78kts
08-Nov-20 15:57 34.617111 -117.398909 269 3996ft 88kts
08-Nov-20 15:58 34.620553 -117.429572 272 4952ft 93kts
08-Nov-20 15:59 34.624610 -117.460383 272 5732ft 91kts
08-Nov-20 16:00 34.622214 -117.493968 269 6001ft 117kts
08-Nov-20 16:01 34.623612 -117.534444 275 6029ft 120kts
08-Nov-20 16:02 34.629883 -117.575183 279 5989ft 123kts
08-Nov-20 16:03 34.641819 -117.614501 311 5710ft 138kts
08-Nov-20 16:04 34.661470 -117.588797 114 4900ft 166kts
08-Nov-20 16:05 34.640964 -117.543093 120 4773ft 159kts
08-Nov-20 16:06 34.622530 -117.493394 117 4255ft 163kts
08-Nov-20 16:07 34.606169 -117.446516 110 3786ft 132kts
08-Nov-20 16:08 34.606247 -117.405573 53 3672ft 120kts
08-Nov-20 16:09 34.627064 -117.375911 67 3603ft 115kts
08-Nov-20 16:10 34.611193 -117.358359 202 3123ft 72kts
08-Nov-20 16:11 34.598382 -117.369059 225 2849ft 41kts
08-Nov-20 16:12 34.593989 -117.372721 180 2861ft 0kts
08-Nov-20 16:13 34.593950 -117.372722 181 2861ft 3kts
08-Nov-20 16:14 34.589919 -117.376313 223 2870ft 20kts
08-Nov-20 16:15 34.588168 -117.376558 313 2874ft 0kts
08-Nov-20 16:16 34.588168 -117.376558 313 2874ft 0kts

Navigation Log

Ident Type
Flight plan parsing failed, navigation log unavailable